createdAt,value
2023-04-01T00:04:39.565Z,12.19
2023-04-01T00:09:42.601Z,12.27
2023-04-01T00:14:46.020Z,12.32
2023-04-01T00:19:49.435Z,12.38
2023-04-01T00:24:52.644Z,12.46
2023-04-01T00:29:56.066Z,12.51
2023-04-01T00:35:00.722Z,12.62
2023-04-01T00:40:06.325Z,12.71
2023-04-01T00:45:32.869Z,12.69
2023-04-01T00:50:37.904Z,12.65
2023-04-01T00:55:47.146Z,12.60
2023-04-01T01:00:51.869Z,12.44
2023-04-01T01:06:09.254Z,12.32
2023-04-01T01:11:15.539Z,12.24
2023-04-01T01:16:34.190Z,12.02
2023-04-01T01:22:15.712Z,11.95
2023-04-01T01:27:21.570Z,11.79
2023-04-01T01:33:02.225Z,11.64
2023-04-01T01:38:23.912Z,11.46
2023-04-01T01:43:32.951Z,11.45
2023-04-01T01:48:37.189Z,11.49
2023-04-01T01:53:40.402Z,11.52
2023-04-01T01:58:48.789Z,11.39
2023-04-01T02:03:53.789Z,11.35
2023-04-01T02:09:02.336Z,11.33
2023-04-01T02:14:17.010Z,11.40
2023-04-01T02:19:24.928Z,11.48
2023-04-01T02:24:31.778Z,11.33
2023-04-01T02:29:34.934Z,11.46
2023-04-01T02:34:38.688Z,11.54
2023-04-01T02:39:43.809Z,11.65
2023-04-01T02:44:47.029Z,11.80
2023-04-01T02:49:50.037Z,11.83
2023-04-01T02:54:53.144Z,11.71
2023-04-01T02:59:56.456Z,11.79
2023-04-01T03:04:59.379Z,11.93
2023-04-01T03:10:02.786Z,11.88
2023-04-01T03:15:10.409Z,11.82
2023-04-01T03:20:16.067Z,11.61
2023-04-01T03:25:19.173Z,11.37
2023-04-01T03:30:22.329Z,11.39
2023-04-01T03:35:25.702Z,11.25
2023-04-01T03:40:28.798Z,11.19
2023-04-01T03:45:31.988Z,10.68
2023-04-01T03:50:36.536Z,11.03
2023-04-01T03:55:40.015Z,10.81
2023-04-01T04:00:42.832Z,10.86
2023-04-01T04:05:49.450Z,10.47
2023-04-01T04:10:58.439Z,10.69
2023-04-01T04:16:01.453Z,10.75
2023-04-01T04:21:05.454Z,10.46
2023-04-01T04:26:11.034Z,10.21
2023-04-01T04:31:21.105Z,10.18
2023-04-01T04:36:24.256Z,10.00
2023-04-01T04:41:27.306Z,10.39
2023-04-01T04:46:30.754Z,10.48
2023-04-01T04:51:37.117Z,10.55
2023-04-01T04:56:40.125Z,10.06
2023-04-01T05:01:43.170Z,10.38
2023-04-01T05:06:46.351Z,9.78
2023-04-01T05:11:49.333Z,9.87
2023-04-01T05:16:52.399Z,9.84
2023-04-01T05:21:55.555Z,9.46
2023-04-01T05:26:58.660Z,9.54
2023-04-01T05:32:02.168Z,9.00
2023-04-01T05:37:05.294Z,9.26
2023-04-01T05:42:08.912Z,9.55
2023-04-01T05:47:11.917Z,9.48
2023-04-01T05:52:15.130Z,9.53
2023-04-01T05:57:18.437Z,9.56
2023-04-01T06:02:21.549Z,9.60
2023-04-01T06:07:25.074Z,9.69
2023-04-01T06:12:57.036Z,9.52
2023-04-01T06:18:36.308Z,9.52
2023-04-01T06:23:57.651Z,9.79
2023-04-01T06:29:23.910Z,9.79
2023-04-01T06:34:33.096Z,9.65
2023-04-01T06:40:15.178Z,9.53
2023-04-01T06:45:24.120Z,9.57
2023-04-01T06:50:32.050Z,9.70
2023-04-01T06:55:51.439Z,9.82
2023-04-01T07:01:08.488Z,9.91
2023-04-01T07:06:28.278Z,9.76
2023-04-01T07:11:38.298Z,9.81
2023-04-01T07:16:58.125Z,9.73
2023-04-01T07:22:39.651Z,9.52
2023-04-01T07:27:44.294Z,9.33
2023-04-01T07:33:06.994Z,9.42
2023-04-01T07:38:25.957Z,9.14
2023-04-01T07:43:37.871Z,9.03
2023-04-01T07:48:41.155Z,9.15
2023-04-01T07:53:59.036Z,9.01
2023-04-01T07:59:24.667Z,8.94
2023-04-01T08:05:09.381Z,8.76
2023-04-01T08:10:31.074Z,8.72
2023-04-01T08:15:47.110Z,8.84
2023-04-01T08:20:57.182Z,9.11
2023-04-01T08:26:18.524Z,9.44
2023-04-01T08:31:33.444Z,9.69
2023-04-01T08:36:41.288Z,9.99
2023-04-01T08:42:09.517Z,9.90
2023-04-01T08:47:31.690Z,9.99
2023-04-01T08:52:48.194Z,9.96
2023-04-01T08:57:55.408Z,9.95
2023-04-01T09:03:21.540Z,10.45
2023-04-01T09:08:36.745Z,10.60
2023-04-01T09:14:12.255Z,10.51
2023-04-01T09:19:40.410Z,10.53
2023-04-01T09:25:08.102Z,10.54
2023-04-01T09:30:26.467Z,10.49
2023-04-01T09:35:52.421Z,10.75
2023-04-01T09:40:59.725Z,10.73
2023-04-01T09:46:21.825Z,11.10
2023-04-01T09:52:04.079Z,11.12
2023-04-01T09:57:37.007Z,11.19
2023-04-01T10:03:01.782Z,10.86
2023-04-01T10:08:23.776Z,10.38
2023-04-01T10:13:42.243Z,10.13
2023-04-01T10:19:11.464Z,10.05
2023-04-01T10:24:29.521Z,10.14
2023-04-01T10:29:54.240Z,10.09
2023-04-01T10:35:35.889Z,10.36
2023-04-01T10:40:47.148Z,10.49
2023-04-01T10:46:16.904Z,10.33
2023-04-01T10:51:22.965Z,10.30
2023-04-01T10:56:31.697Z,10.21
2023-04-01T11:01:37.500Z,10.64
2023-04-01T11:06:40.379Z,10.46
2023-04-01T11:11:49.425Z,10.21
2023-04-01T11:17:23.600Z,10.12
2023-04-01T11:23:20.795Z,9.97
2023-04-01T11:28:42.181Z,9.97
2023-04-01T11:33:59.008Z,10.14
2023-04-01T11:39:16.245Z,10.32
2023-04-01T11:44:22.605Z,10.19
2023-04-01T11:49:44.093Z,10.16
2023-04-01T11:54:59.573Z,10.14
2023-04-01T12:00:17.834Z,10.16
2023-04-01T12:05:44.394Z,10.16
2023-04-01T12:10:57.003Z,10.18
2023-04-01T12:16:26.475Z,10.07
2023-04-01T12:22:00.876Z,9.98
2023-04-01T12:27:25.513Z,9.88
2023-04-01T12:32:53.760Z,9.75
2023-04-01T12:38:22.392Z,9.56
2023-04-01T12:43:50.526Z,9.48
2023-04-01T12:49:06.025Z,9.19
2023-04-01T12:54:31.347Z,9.39
2023-04-01T12:59:52.362Z,9.95
2023-04-01T13:05:20.876Z,10.55
2023-04-01T13:10:43.446Z,10.05
2023-04-01T13:15:53.093Z,9.64
2023-04-01T13:21:04.817Z,9.68
2023-04-01T13:26:29.360Z,9.75
2023-04-01T13:31:35.641Z,9.86
2023-04-01T13:36:41.564Z,9.46
2023-04-01T13:42:03.124Z,9.41
2023-04-01T13:47:16.678Z,9.37
2023-04-01T13:52:33.100Z,9.65
2023-04-01T13:58:02.936Z,9.48
2023-04-01T14:03:30.574Z,9.33
2023-04-01T14:08:48.174Z,8.88
2023-04-01T14:14:20.355Z,8.70
2023-04-01T14:19:44.865Z,8.89
2023-04-01T14:25:06.816Z,8.80
2023-04-01T14:30:30.969Z,8.64
2023-04-01T14:35:47.572Z,8.45
2023-04-01T14:40:58.218Z,8.53
2023-04-01T14:46:10.282Z,8.70
2023-04-01T14:51:22.700Z,8.64
2023-04-01T14:56:48.864Z,8.57
2023-04-01T15:01:54.771Z,8.04
2023-04-01T15:06:58.015Z,9.17
2023-04-01T15:12:33.684Z,10.42
2023-04-01T15:17:59.531Z,9.70
2023-04-01T15:23:28.464Z,9.65
2023-04-01T15:28:40.568Z,9.22
2023-04-01T15:34:08.408Z,9.07
2023-04-01T15:39:21.274Z,8.92
2023-04-01T15:44:48.492Z,8.63
2023-04-01T15:50:03.360Z,8.58
2023-04-01T15:55:22.130Z,8.31
2023-04-01T16:00:49.102Z,7.86
2023-04-01T16:06:22.215Z,7.68
2023-04-01T16:11:44.341Z,7.74
2023-04-01T16:16:59.551Z,7.60
2023-04-01T16:22:20.273Z,7.70
2023-04-01T16:27:23.088Z,7.69
2023-04-01T16:32:54.943Z,7.46
2023-04-01T16:38:14.455Z,7.70
2023-04-01T16:43:28.821Z,8.02
2023-04-01T16:49:04.343Z,7.60
2023-04-01T16:54:28.501Z,7.21
2023-04-01T16:59:38.000Z,7.07
2023-04-01T17:05:07.082Z,7.05
2023-04-01T17:10:41.340Z,7.33
2023-04-01T17:15:54.639Z,7.29
2023-04-01T17:21:07.097Z,7.36
2023-04-01T17:26:28.849Z,7.14
2023-04-01T17:31:41.216Z,6.93
2023-04-01T17:37:15.308Z,6.90
2023-04-01T17:42:49.341Z,6.67
2023-04-01T17:48:02.423Z,6.89
2023-04-01T17:53:30.899Z,6.57
2023-04-01T17:58:56.638Z,6.57
2023-04-01T18:04:25.549Z,6.40
2023-04-01T18:09:40.734Z,6.73
2023-04-01T18:14:51.383Z,6.48
2023-04-01T18:20:16.550Z,6.79
2023-04-01T18:25:31.238Z,6.70
2023-04-01T18:30:37.249Z,6.44
2023-04-01T18:35:49.545Z,6.39
2023-04-01T18:41:11.572Z,6.62
2023-04-01T18:46:23.921Z,6.68
2023-04-01T18:51:58.634Z,6.58
2023-04-01T18:57:13.529Z,6.53
2023-04-01T19:02:22.479Z,6.48
2023-04-01T19:07:37.799Z,6.65
2023-04-01T19:13:19.097Z,6.74
2023-04-01T19:18:34.696Z,6.90
2023-04-01T19:24:03.224Z,6.66
2023-04-01T19:29:32.520Z,6.48
2023-04-01T19:34:38.688Z,6.30
2023-04-01T19:40:09.912Z,6.35
2023-04-01T19:45:12.931Z,6.51
2023-04-01T19:50:41.468Z,6.67
2023-04-01T19:56:02.910Z,6.04
2023-04-01T20:02:01.947Z,6.09
2023-04-01T20:07:16.285Z,6.60
2023-04-01T20:12:41.940Z,6.31
2023-04-01T20:17:47.261Z,5.90
2023-04-01T20:23:11.820Z,6.44
2023-04-01T20:28:21.527Z,6.80
2023-04-01T20:33:56.154Z,6.87
2023-04-01T20:39:12.530Z,6.47
2023-04-01T20:44:26.714Z,6.76
2023-04-01T20:49:36.594Z,6.45
2023-04-01T20:55:12.072Z,6.39
2023-04-01T21:00:24.272Z,6.31
2023-04-01T21:05:42.435Z,5.84
2023-04-01T21:10:59.375Z,5.69
2023-04-01T21:16:21.281Z,5.69
2023-04-01T21:22:02.026Z,5.53
2023-04-01T21:27:23.871Z,5.60
2023-04-01T21:32:42.479Z,5.97
2023-04-01T21:38:10.526Z,6.09
2023-04-01T21:43:56.027Z,5.75
2023-04-01T21:49:11.542Z,5.67
2023-04-01T21:54:19.260Z,5.91
2023-04-01T21:59:43.547Z,6.03
2023-04-01T22:04:46.388Z,5.77
2023-04-01T22:09:58.481Z,5.99
2023-04-01T22:15:07.514Z,6.00
2023-04-01T22:20:33.770Z,5.89
2023-04-01T22:25:46.083Z,6.06
2023-04-01T22:30:48.996Z,5.73
2023-04-01T22:36:07.976Z,5.62
2023-04-01T22:41:25.321Z,6.20
2023-04-01T22:46:45.124Z,6.20
2023-04-01T22:52:14.649Z,5.91
2023-04-01T22:57:36.090Z,5.95
2023-04-01T23:03:09.925Z,6.08
2023-04-01T23:08:43.956Z,5.98
2023-04-01T23:14:10.010Z,5.91
2023-04-01T23:19:21.209Z,5.90
2023-04-01T23:24:34.116Z,5.15
2023-04-01T23:29:43.821Z,5.49
2023-04-01T23:34:50.904Z,5.21
2023-04-01T23:39:57.082Z,4.98
2023-04-01T23:45:04.697Z,5.39
2023-04-01T23:50:15.571Z,4.83
2023-04-01T23:55:25.563Z,4.95
